Time;durP1;ratioP1;P1;durP2;ratioP2;P2;SDS_P1;SDS_P2;PMS_P1;PMS_P2;Temp;Humidity;BMP_temperature;BMP_pressure;BME280_temperature;BME280_humidity;BME280_pressure;Samples;Min_cycle;Max_cycle;Signal;HPM_P1;HPM_P2
2022/01/17 00:01:38;;;;;;;12.05;1.10;;;6.90;99.90;;;;;;4837931;29;20034;-78
2022/01/17 00:04:07;;;;;;;9.52;1.02;;;6.80;99.90;;;;;;4822668;29;20069;-78
2022/01/17 00:06:43;;;;;;;10.95;0.93;;;6.80;99.90;;;;;;4841007;29;20037;-78
2022/01/17 00:09:10;;;;;;;10.95;1.20;;;6.80;99.90;;;;;;4839076;29;20757;-77
2022/01/17 00:11:42;;;;;;;12.40;1.00;;;6.80;99.90;;;;;;4840408;29;20026;-77
2022/01/17 00:14:14;;;;;;;9.45;0.93;;;6.80;99.90;;;;;;4842270;29;20026;-77
2022/01/17 00:16:48;;;;;;;;;;;6.80;99.90;;;;;;4840555;29;20072;-77
2022/01/17 00:21:49;;;;;;;9.68;0.88;;;6.80;99.90;;;;;;4842575;29;20469;-77
2022/01/17 00:24:18;;;;;;;7.75;1.20;;;6.70;99.90;;;;;;4842864;29;20500;-77
2022/01/17 00:26:47;;;;;;;8.93;0.88;;;6.70;99.90;;;;;;4825887;29;20062;-77
2022/01/17 00:29:30;;;;;;;11.25;1.08;;;6.70;99.90;;;;;;4841192;29;20029;-77
2022/01/17 00:31:59;;;;;;;9.57;1.00;;;6.70;99.90;;;;;;4841520;29;20383;-77
2022/01/17 00:35:09;;;;;;;10.68;0.85;;;6.70;99.90;;;;;;4840205;29;20045;-77
2022/01/17 00:37:51;;;;;;;12.05;1.05;;;6.70;99.90;;;;;;4827321;29;20068;-77
2022/01/17 00:41:01;;;;;;;8.70;1.13;;;6.60;99.90;;;;;;4847902;29;20201;-77
2022/01/17 00:47:14;;;;;;;14.38;1.42;;;6.60;99.90;;;;;;4831582;29;20065;-77
2022/01/17 00:49:50;;;;;;;6.38;0.52;;;6.60;99.90;;;;;;4841896;29;20465;-77
2022/01/17 00:52:23;;;;;;;10.98;0.90;;;6.60;99.90;;;;;;4842561;29;20049;-77
2022/01/17 00:55:38;;;;;;;10.82;0.70;;;6.70;99.90;;;;;;4838815;29;20041;-77
2022/01/17 00:58:38;;;;;;;11.63;0.80;;;6.60;99.90;;;;;;4835155;29;20045;-77
2022/01/17 01:01:11;;;;;;;17.17;2.47;;;6.60;99.90;;;;;;4837672;29;20062;-77
2022/01/17 01:03:40;;;;;;;13.07;1.52;;;6.60;99.90;;;;;;4844297;29;20073;-78
2022/01/17 01:06:26;;;;;;;14.82;1.63;;;6.60;99.90;;;;;;4828328;29;20060;-77
2022/01/17 01:09:23;;;;;;;11.13;1.52;;;6.60;99.90;;;;;;4826075;29;20049;-77
2022/01/17 01:11:54;;;;;;;15.98;1.90;;;6.60;99.90;;;;;;4845125;29;20038;-78
2022/01/17 01:14:27;;;;;;;14.95;2.55;;;6.60;99.90;;;;;;4845499;29;20371;-78
2022/01/17 01:17:07;;;;;;;14.60;2.88;;;6.60;99.90;;;;;;4848894;29;20056;-78
2022/01/17 01:20:00;;;;;;;8.55;1.88;;;6.60;99.90;;;;;;4844712;29;20037;-78
2022/01/17 01:29:00;;;;;;;11.77;2.33;;;6.60;99.90;;;;;;4841359;29;20473;-78
2022/01/17 01:35:10;;;;;;;16.27;3.10;;;6.60;99.90;;;;;;4827670;29;20379;-78
2022/01/17 01:37:55;;;;;;;11.15;1.92;;;6.60;99.90;;;;;;4853676;29;20049;-78
2022/01/17 01:40:41;;;;;;;14.07;2.33;;;6.60;99.90;;;;;;4845052;29;20037;-78
2022/01/17 01:43:11;;;;;;;11.40;1.98;;;6.60;99.90;;;;;;4847155;29;20450;-78
2022/01/17 01:45:42;;;;;;;14.73;1.77;;;6.50;99.90;;;;;;4845128;29;20390;-78
2022/01/17 01:48:19;;;;;;;10.85;1.38;;;6.50;99.90;;;;;;4847444;29;20044;-78
2022/01/17 01:50:49;;;;;;;16.05;1.83;;;6.40;99.90;;;;;;4850111;29;20478;-78
2022/01/17 01:53:19;;;;;;;14.07;1.17;;;6.40;99.90;;;;;;4830413;29;20034;-78
2022/01/17 01:55:56;;;;;;;17.17;1.83;;;6.40;99.90;;;;;;4841943;29;20068;-78
2022/01/17 01:58:53;;;;;;;16.48;2.20;;;6.40;99.90;;;;;;4817052;29;20058;-78
2022/01/17 02:01:28;;;;;;;13.52;1.25;;;6.40;99.90;;;;;;4843504;29;20394;-78
2022/01/17 02:04:15;;;;;;;11.60;1.48;;;6.30;99.90;;;;;;4843774;29;20057;-78
2022/01/17 02:06:44;;;;;;;9.60;1.40;;;6.30;99.90;;;;;;4825284;29;20052;-78
2022/01/17 02:09:14;;;;;;;16.52;1.50;;;6.30;99.90;;;;;;4847968;29;20038;-78
2022/01/17 02:12:00;;;;;;;16.10;2.13;;;6.30;99.90;;;;;;4831067;29;20037;-78
2022/01/17 02:14:32;;;;;;;11.48;1.55;;;6.20;99.90;;;;;;4846605;29;20441;-78
2022/01/17 02:17:06;;;;;;;13.40;1.40;;;6.20;99.90;;;;;;4843790;29;20037;-78
2022/01/17 02:19:45;;;;;;;7.53;1.08;;;6.20;99.90;;;;;;4825536;29;20045;-78
2022/01/17 02:22:21;;;;;;;14.07;1.10;;;6.20;99.90;;;;;;4842883;29;21363;-78
2022/01/17 02:24:56;;;;;;;12.05;1.55;;;6.20;99.90;;;;;;4832665;29;20048;-78
2022/01/17 02:27:26;;;;;;;11.95;1.13;;;6.20;99.90;;;;;;4841928;29;20037;-78
2022/01/17 02:30:03;;;;;;;10.27;1.20;;;6.20;99.90;;;;;;4845850;29;20061;-78
2022/01/17 02:33:07;;;;;;;9.13;1.38;;;6.10;99.90;;;;;;4815309;29;20473;-79
2022/01/17 02:35:45;;;;;;;11.65;1.55;;;6.20;99.90;;;;;;4831682;29;20046;-79
2022/01/17 02:38:14;;;;;;;12.45;1.20;;;6.20;99.90;;;;;;4846933;29;20053;-78
2022/01/17 02:40:55;;;;;;;13.00;1.83;;;6.20;99.90;;;;;;4843286;29;20061;-78
2022/01/17 02:43:23;;;;;;;12.27;1.38;;;6.10;99.90;;;;;;4851424;29;20030;-79
2022/01/17 02:46:31;;;;;;;14.70;1.83;;;6.10;99.90;;;;;;4848700;29;20053;-79
2022/01/17 02:49:29;;;;;;;12.55;1.05;;;6.20;99.90;;;;;;4795314;29;20046;-79
2022/01/17 02:52:05;;;;;;;13.70;1.10;;;6.10;99.90;;;;;;4806774;29;20514;-79
2022/01/17 02:54:48;;;;;;;13.13;1.30;;;6.10;99.90;;;;;;4835814;29;20050;-79
2022/01/17 02:57:32;;;;;;;9.55;0.70;;;6.20;99.90;;;;;;4844966;29;20369;-78
2022/01/17 03:00:58;;;;;;;13.93;0.95;;;6.20;99.90;;;;;;4843301;29;20037;-78
2022/01/17 03:03:29;;;;;;;14.80;1.80;;;6.20;99.90;;;;;;4839806;29;20053;-79
2022/01/17 03:06:31;;;;;;;11.40;0.90;;;6.20;99.90;;;;;;4828485;29;20050;-78
2022/01/17 03:09:12;;;;;;;13.55;1.00;;;6.20;99.90;;;;;;4849688;29;20040;-80
2022/01/17 03:11:47;;;;;;;14.35;0.98;;;6.20;99.90;;;;;;4846129;29;20045;-79
2022/01/17 03:14:26;;;;;;;16.45;1.90;;;6.10;99.90;;;;;;4846738;29;20037;-78
2022/01/17 03:16:59;;;;;;;11.93;0.82;;;6.10;99.90;;;;;;4849843;29;20077;-84
2022/01/17 03:19:43;;;;;;;15.82;2.25;;;6.00;99.90;;;;;;4851725;29;20050;-85
2022/01/17 03:22:13;;;;;;;11.57;0.98;;;6.00;99.90;;;;;;4835829;29;20431;-84
2022/01/17 03:28:37;;;;;;;10.68;1.10;;;5.80;99.90;;;;;;4845093;29;20046;-84
2022/01/17 03:31:11;;;;;;;8.77;0.98;;;5.80;99.90;;;;;;4832363;29;20033;-79
2022/01/17 03:33:53;;;;;;;9.40;0.70;;;5.70;99.90;;;;;;4849120;29;20488;-79
2022/01/17 03:36:46;;;;;;;9.48;0.82;;;5.60;99.90;;;;;;4842279;29;20081;-79
2022/01/17 03:39:18;;;;;;;12.50;1.10;;;5.50;99.90;;;;;;4839904;29;20053;-79
2022/01/17 03:41:53;;;;;;;8.13;1.40;;;5.40;99.90;;;;;;4849661;29;20064;-79
2022/01/17 03:44:25;;;;;;;14.65;0.90;;;5.30;99.90;;;;;;4839689;29;20516;-79
2022/01/17 03:47:06;;;;;;;14.20;1.30;;;5.20;99.90;;;;;;4846182;29;20049;-79
2022/01/17 03:49:41;;;;;;;6.80;1.00;;;5.20;99.90;;;;;;4853107;29;20056;-79
2022/01/17 03:52:12;;;;;;;14.85;0.93;;;5.10;99.90;;;;;;4844867;29;20048;-79
2022/01/17 03:54:46;;;;;;;11.68;0.90;;;5.10;99.90;;;;;;4850637;29;20041;-79
2022/01/17 03:57:25;;;;;;;11.73;0.80;;;5.00;99.90;;;;;;4850009;29;20041;-79
2022/01/17 03:59:58;;;;;;;7.38;0.88;;;5.00;99.90;;;;;;4847428;29;20041;-79
2022/01/17 04:03:50;;;;;;;10.23;0.90;;;4.90;99.90;;;;;;4825446;29;20042;-79
2022/01/17 04:07:40;;;;;;;13.57;1.23;;;4.90;99.90;;;;;;4844942;29;20038;-79
2022/01/17 04:10:44;;;;;;;13.77;0.88;;;4.80;99.90;;;;;;4840358;29;20493;-79
2022/01/17 04:13:18;;;;;;;13.45;1.40;;;4.70;99.90;;;;;;4841800;29;20042;-79
2022/01/17 04:16:23;;;;;;;12.73;0.93;;;4.70;99.90;;;;;;4846183;29;20048;-79
2022/01/17 04:19:42;;;;;;;11.43;1.10;;;4.70;99.90;;;;;;4844432;29;20037;-78
2022/01/17 04:22:59;;;;;;;14.48;1.20;;;4.70;99.90;;;;;;4845398;29;20030;-78
2022/01/17 04:25:29;;;;;;;;;;;4.60;99.90;;;;;;4819863;29;20049;-78
2022/01/17 04:28:58;;;;;;;15.30;0.98;;;4.60;99.90;;;;;;4847331;29;19931;-78
2022/01/17 04:31:26;;;;;;;16.45;1.60;;;4.60;99.90;;;;;;4842595;29;20038;-78
2022/01/17 04:33:56;;;;;;;16.52;1.20;;;4.60;99.90;;;;;;4844562;29;20041;-79
2022/01/17 04:36:26;;;;;;;13.30;1.00;;;4.60;99.90;;;;;;4842812;29;20053;-79
2022/01/17 04:38:55;;;;;;;11.93;1.00;;;4.70;99.90;;;;;;4841152;29;20973;-78
2022/01/17 04:41:35;;;;;;;14.00;0.90;;;4.70;99.90;;;;;;4838806;29;20054;-78
2022/01/17 04:45:07;;;;;;;9.40;0.55;;;4.70;99.90;;;;;;4836401;29;20061;-79
2022/01/17 04:46:55;;;;;;;11.68;1.35;;;4.70;99.90;;;;;;4838022;29;20065;-79
2022/01/17 04:49:22;;;;;;;13.75;1.10;;;4.60;99.90;;;;;;4839846;29;20038;-78
2022/01/17 04:51:53;;;;;;;16.90;1.98;;;4.70;99.90;;;;;;4821843;29;20061;-78
2022/01/17 04:56:49;;;;;;;15.30;1.63;;;4.80;99.90;;;;;;4828369;29;20140;-79
2022/01/17 04:59:19;;;;;;;10.15;1.17;;;4.80;99.90;;;;;;4837091;29;20042;-79
2022/01/17 05:01:48;;;;;;;15.05;1.42;;;4.90;99.90;;;;;;4837724;29;20046;-78
2022/01/17 05:04:19;;;;;;;12.43;1.67;;;4.90;99.90;;;;;;4838143;29;20049;-79
2022/01/17 05:07:06;;;;;;;11.27;1.20;;;4.90;99.90;;;;;;4836666;29;20529;-79
2022/01/17 05:09:35;;;;;;;11.45;1.20;;;4.90;99.90;;;;;;4836438;29;20034;-78
2022/01/17 05:12:01;;;;;;;11.65;1.00;;;5.00;99.90;;;;;;4820302;29;20591;-78
2022/01/17 05:14:46;;;;;;;14.88;1.40;;;5.00;99.90;;;;;;4838151;29;20486;-78
2022/01/17 05:20:01;;;;;;;17.65;1.88;;;5.00;99.90;;;;;;4836877;29;20421;-78
2022/01/17 05:22:52;;;;;;;9.27;1.15;;;4.90;99.90;;;;;;4823370;29;20050;-79
2022/01/17 05:25:50;;;;;;;14.07;1.40;;;4.90;99.90;;;;;;4835841;29;20046;-78
2022/01/17 05:28:21;;;;;;;9.25;1.10;;;4.80;99.90;;;;;;4838104;29;20053;-78
2022/01/17 05:30:56;;;;;;;13.23;1.17;;;4.80;99.90;;;;;;4837452;29;20600;-79
2022/01/17 05:34:08;;;;;;;;;;;4.80;99.90;;;;;;4839383;29;20397;-79
2022/01/17 05:36:49;;;;;;;9.82;1.55;;;4.70;99.90;;;;;;4838591;29;19919;-79
2022/01/17 05:39:28;;;;;;;9.45;1.40;;;4.70;99.90;;;;;;4847178;29;20454;-78
2022/01/17 05:42:01;;;;;;;16.92;1.95;;;4.60;99.90;;;;;;4837079;29;20038;-78
2022/01/17 05:44:40;;;;;;;13.43;2.15;;;4.60;99.90;;;;;;4837490;29;20075;-78
2022/01/17 05:47:06;;;;;;;14.82;1.70;;;4.60;99.90;;;;;;4837211;29;20040;-78
2022/01/17 05:49:41;;;;;;;10.85;1.67;;;4.60;99.90;;;;;;4839197;29;20053;-78
2022/01/17 05:52:18;;;;;;;14.85;1.70;;;4.50;99.90;;;;;;4827310;29;20417;-77
2022/01/17 05:55:07;;;;;;;15.77;1.23;;;4.50;99.90;;;;;;4830112;29;20053;-78
2022/01/17 05:57:37;;;;;;;13.65;1.95;;;4.50;99.90;;;;;;4840307;29;20041;-78
2022/01/17 06:00:20;;;;;;;9.73;1.52;;;4.50;99.90;;;;;;4841477;29;20049;-77
2022/01/17 06:02:48;;;;;;;12.73;2.28;;;4.50;99.90;;;;;;4839166;29;20046;-77
2022/01/17 06:05:14;;;;;;;12.85;1.73;;;4.50;99.90;;;;;;4842286;29;20074;-76
2022/01/17 06:07:42;;;;;;;14.32;1.73;;;4.50;99.90;;;;;;4841333;29;20056;-78
2022/01/17 06:10:08;;;;;;;15.63;2.97;;;4.50;99.90;;;;;;4839353;29;20382;-77
2022/01/17 06:12:35;;;;;;;11.98;2.22;;;4.50;99.90;;;;;;4840755;29;20054;-78
2022/01/17 06:15:13;;;;;;;18.02;2.70;;;4.50;99.90;;;;;;4842531;29;20052;-77
2022/01/17 06:18:07;;;;;;;14.98;2.45;;;4.50;99.90;;;;;;4848200;29;20045;-84
2022/01/17 06:20:46;;;;;;;16.50;2.55;;;4.50;99.90;;;;;;4839893;29;20407;-84
2022/01/17 06:23:32;;;;;;;23.52;4.57;;;4.60;99.90;;;;;;4832331;29;20057;-84
2022/01/17 06:26:02;;;;;;;22.33;4.90;;;4.60;99.90;;;;;;4841147;29;20042;-81
2022/01/17 06:29:04;;;;;;;22.08;4.72;;;4.60;99.90;;;;;;4827341;29;20050;-85
2022/01/17 06:32:07;;;;;;;16.95;4.97;;;4.60;99.90;;;;;;4845961;29;20053;-82
2022/01/17 06:35:20;;;;;;;;;;;;;;;;;;;;;
2022/01/17 06:38:05;;;;;;;16.23;4.25;;;4.60;99.90;;;;;;4804155;29;20039;-77
2022/01/17 06:40:54;;;;;;;15.25;4.45;;;4.60;99.90;;;;;;4810592;29;20046;-79
2022/01/17 06:44:01;;;;;;;19.67;5.90;;;4.60;99.90;;;;;;4823301;29;20055;-78
2022/01/17 06:46:29;;;;;;;20.20;6.05;;;4.60;99.90;;;;;;4782060;29;20031;-78
2022/01/17 06:48:59;;;;;;;19.25;6.10;;;4.60;99.90;;;;;;4796541;29;20046;-78
2022/01/17 06:51:31;;;;;;;17.30;6.40;;;4.60;99.90;;;;;;4818891;29;20041;-78
2022/01/17 06:54:36;;;;;;;25.88;8.30;;;4.60;99.90;;;;;;4801543;29;20049;-78
2022/01/17 06:57:05;;;;;;;32.83;9.52;;;4.60;99.90;;;;;;4812704;29;20054;-78
2022/01/17 07:06:28;;;;;;;25.00;9.63;;;4.80;99.90;;;;;;4806783;29;20046;-79
2022/01/17 07:08:58;;;;;;;29.20;12.02;;;5.00;99.90;;;;;;4793901;29;20050;-78
2022/01/17 07:12:17;;;;;;;31.42;14.90;;;5.00;99.90;;;;;;4821332;29;20045;-79
2022/01/17 07:14:58;;;;;;;21.63;11.57;;;5.10;99.90;;;;;;4811947;29;20503;-79
2022/01/17 07:17:47;;;;;;;36.85;15.38;;;5.20;99.90;;;;;;4784984;29;20424;-79
2022/01/17 07:20:23;;;;;;;35.95;14.65;;;5.20;99.90;;;;;;4785569;29;20042;-79
2022/01/17 07:23:15;;;;;;;35.30;15.50;;;5.30;99.90;;;;;;4802416;29;20054;-79
2022/01/17 07:25:48;;;;;;;43.75;17.00;;;5.30;99.90;;;;;;4802662;29;20059;-79
2022/01/17 07:28:18;;;;;;;42.58;16.25;;;5.30;99.90;;;;;;4804420;29;20042;-79
2022/01/17 07:30:46;;;;;;;34.58;17.00;;;5.40;99.90;;;;;;4781478;29;20057;-79
2022/01/17 07:33:51;;;;;;;38.90;16.80;;;5.40;99.90;;;;;;4818397;29;20050;-79
2022/01/17 07:36:23;;;;;;;32.00;17.05;;;5.50;99.90;;;;;;4796042;29;20569;-79
2022/01/17 07:38:54;;;;;;;44.45;18.63;;;5.50;99.90;;;;;;4820491;29;20046;-79
2022/01/17 07:41:27;;;;;;;36.92;16.50;;;5.50;99.90;;;;;;4807540;29;20060;-81
2022/01/17 07:44:07;;;;;;;39.58;19.08;;;5.60;99.90;;;;;;4816491;29;20627;-81
2022/01/17 07:46:53;;;;;;;37.13;19.13;;;5.60;99.90;;;;;;4799763;29;20049;-80
2022/01/17 07:50:17;;;;;;;30.67;15.55;;;5.70;99.90;;;;;;4805055;29;20474;-80
2022/01/17 07:52:51;;;;;;;32.78;16.23;;;5.70;99.90;;;;;;4827361;29;20046;-83
2022/01/17 07:55:35;;;;;;;34.70;17.35;;;5.70;99.90;;;;;;4838245;29;20034;-82
2022/01/17 07:58:09;;;;;;;46.13;20.42;;;5.80;99.90;;;;;;4838433;29;20046;-83
2022/01/17 08:01:23;;;;;;;33.75;17.17;;;5.80;99.90;;;;;;4841563;29;20050;-83
2022/01/17 08:04:12;;;;;;;32.83;16.83;;;5.80;99.90;;;;;;4841426;29;20510;-82
2022/01/17 08:11:35;;;;;;;41.53;18.65;;;5.90;99.90;;;;;;4835224;29;20046;-80
2022/01/17 08:14:10;;;;;;;31.33;17.30;;;5.90;99.90;;;;;;4842541;29;20045;-82
2022/01/17 08:16:41;;;;;;;28.63;16.00;;;6.00;99.90;;;;;;4836856;29;20049;-80
2022/01/17 08:19:55;;;;;;;34.40;17.05;;;6.00;99.90;;;;;;4842042;29;20053;-81
2022/01/17 08:22:31;;;;;;;36.10;17.00;;;5.90;99.90;;;;;;4834591;29;20056;-80
2022/01/17 08:25:16;;;;;;;36.28;17.92;;;6.00;99.90;;;;;;4843738;29;20050;-81
2022/01/17 08:27:43;;;;;;;28.77;15.88;;;6.00;99.90;;;;;;4836960;29;20046;-81
2022/01/17 08:30:15;;;;;;;37.85;15.57;;;5.90;99.90;;;;;;4841335;29;20490;-78
2022/01/17 08:36:22;;;;;;;33.00;13.95;;;5.80;99.90;;;;;;4827254;29;20049;-80
2022/01/17 08:38:53;;;;;;;35.17;14.98;;;5.90;99.90;;;;;;4826283;29;20479;-81
2022/01/17 08:41:34;;;;;;;39.40;16.50;;;5.90;99.90;;;;;;4839426;29;20513;-81
2022/01/17 08:44:09;;;;;;;35.35;14.20;;;6.10;99.90;;;;;;4827345;29;20046;-81
2022/01/17 08:46:39;;;;;;;33.90;14.57;;;6.10;99.90;;;;;;4839385;29;20049;-81
2022/01/17 08:49:19;;;;;;;33.22;14.52;;;6.20;99.90;;;;;;4839201;29;20053;-81
2022/01/17 08:52:10;;;;;;;29.98;13.25;;;6.30;99.90;;;;;;4828432;29;20121;-81
2022/01/17 08:55:34;;;;;;;28.58;11.52;;;6.30;99.90;;;;;;4826502;29;20030;-81
2022/01/17 08:58:23;;;;;;;29.50;12.23;;;6.40;99.90;;;;;;4840829;29;20053;-81
2022/01/17 09:00:50;;;;;;;30.05;12.25;;;6.40;99.90;;;;;;4841763;29;20619;-81
2022/01/17 09:03:49;;;;;;;34.45;11.65;;;6.50;99.90;;;;;;4829120;29;20050;-80
2022/01/17 09:07:18;;;;;;;31.20;11.73;;;6.50;99.90;;;;;;4839747;29;20061;-80
2022/01/17 09:09:54;;;;;;;33.47;10.93;;;6.50;99.90;;;;;;4778482;29;20054;-80
2022/01/17 09:12:31;;;;;;;27.95;10.75;;;6.50;99.90;;;;;;4847136;29;20049;-80
2022/01/17 09:15:30;;;;;;;24.83;8.90;;;6.50;99.90;;;;;;4837973;29;20042;-80
2022/01/17 09:18:28;;;;;;;30.38;11.15;;;6.60;99.90;;;;;;4808006;29;20073;-80
2022/01/17 09:21:05;;;;;;;21.38;9.68;;;6.60;99.90;;;;;;4793451;29;20042;-80
2022/01/17 09:23:39;;;;;;;24.17;8.55;;;6.60;99.90;;;;;;4838775;29;20053;-80
2022/01/17 09:26:09;;;;;;;21.33;8.13;;;6.60;99.90;;;;;;4827292;29;20060;-80
2022/01/17 09:28:47;;;;;;;26.52;8.52;;;6.70;99.90;;;;;;4819461;29;20053;-79
2022/01/17 09:31:20;;;;;;;24.65;8.10;;;6.70;99.90;;;;;;4840490;29;20065;-81
2022/01/17 09:33:50;;;;;;;19.70;7.32;;;6.70;99.90;;;;;;4841027;29;20072;-83
2022/01/17 09:36:31;;;;;;;29.63;11.45;;;6.80;99.90;;;;;;4841763;29;20423;-81
2022/01/17 09:39:10;;;;;;;34.85;10.48;;;6.80;99.90;;;;;;4840301;29;20050;-83
2022/01/17 09:42:15;;;;;;;24.58;7.15;;;6.80;99.90;;;;;;4843081;29;20398;-82
2022/01/17 09:44:58;;;;;;;24.17;7.32;;;6.90;99.90;;;;;;4846377;29;21200;-89
2022/01/17 09:47:34;;;;;;;32.00;8.32;;;6.90;99.90;;;;;;4844758;29;20045;-85
2022/01/17 09:50:06;;;;;;;26.95;6.90;;;7.00;99.90;;;;;;4842323;29;20046;-78
2022/01/17 09:53:09;;;;;;;25.55;7.13;;;7.00;99.90;;;;;;4849182;29;20034;-82
2022/01/17 09:56:45;;;;;;;27.67;8.35;;;7.00;99.90;;;;;;4844533;29;20045;-83
2022/01/17 10:00:03;;;;;;;25.00;7.00;;;7.10;99.90;;;;;;4853458;29;20049;-84
2022/01/17 10:03:05;;;;;;;35.28;7.72;;;7.10;99.90;;;;;;4844295;29;20046;-81
2022/01/17 10:05:58;;;;;;;29.42;9.65;;;7.10;99.90;;;;;;4817970;29;20491;-82
2022/01/17 10:09:29;;;;;;;20.77;6.72;;;7.10;99.90;;;;;;4840649;29;20041;-81
2022/01/17 10:13:28;;;;;;;21.10;5.68;;;7.20;99.90;;;;;;4830187;29;20494;-82
2022/01/17 10:16:32;;;;;;;26.65;5.82;;;7.20;99.90;;;;;;4774496;29;20050;-81
2022/01/17 10:19:32;;;;;;;30.15;7.30;;;7.30;99.90;;;;;;4784905;29;20054;-82
2022/01/17 10:22:40;;;;;;;;;;;;;;;;;;;;;
2022/01/17 10:25:55;;;;;;;27.80;5.97;;;7.30;99.90;;;;;;4802098;29;20042;-79
2022/01/17 10:36:28;;;;;;;22.67;5.10;;;7.40;99.90;;;;;;4793866;29;20042;-81
2022/01/17 10:39:22;;;;;;;18.85;4.45;;;7.40;99.90;;;;;;4827028;29;20037;-82
2022/01/17 10:42:34;;;;;;;24.55;4.38;;;7.50;99.90;;;;;;4827579;29;20048;-80
2022/01/17 10:49:00;;;;;;;22.45;4.35;;;7.60;99.90;;;;;;4783149;29;20047;-84
2022/01/17 10:51:52;;;;;;;22.15;3.95;;;7.70;99.90;;;;;;4778988;29;20499;-81
2022/01/17 10:54:22;;;;;;;14.50;2.95;;;7.70;99.90;;;;;;4788705;29;20054;-79
2022/01/17 10:57:04;;;;;;;18.75;2.53;;;7.70;99.90;;;;;;4829047;29;20377;-85
2022/01/17 11:00:25;;;;;;;23.70;3.28;;;7.70;99.90;;;;;;4842103;29;20045;-79
2022/01/17 11:02:58;;;;;;;26.05;3.78;;;7.80;99.90;;;;;;4829260;29;20053;-81
2022/01/17 11:06:00;;;;;;;29.27;4.18;;;7.90;99.90;;;;;;4831233;29;20045;-79
2022/01/17 11:08:51;;;;;;;17.30;3.00;;;7.90;99.90;;;;;;4808521;29;20069;-80
2022/01/17 11:11:46;;;;;;;18.75;2.70;;;8.10;99.90;;;;;;4822216;29;20042;-80
2022/01/17 11:14:30;;;;;;;23.85;3.33;;;8.20;99.90;;;;;;4827578;29;20629;-81
2022/01/17 11:18:11;;;;;;;18.65;3.38;;;8.30;99.90;;;;;;4787324;29;20063;-81
2022/01/17 11:21:05;;;;;;;23.17;2.63;;;8.40;99.90;;;;;;4777818;29;20054;-79
2022/01/17 11:23:48;;;;;;;23.60;3.65;;;8.40;99.90;;;;;;4818378;29;20042;-81
2022/01/17 11:26:31;;;;;;;25.85;3.63;;;8.40;99.90;;;;;;4823118;29;20054;-79
2022/01/17 11:29:02;;;;;;;25.50;3.83;;;8.40;99.90;;;;;;4836330;29;20049;-77
2022/01/17 11:31:32;;;;;;;29.60;3.60;;;8.40;99.90;;;;;;4834061;29;20061;-82
2022/01/17 11:34:09;;;;;;;31.38;3.80;;;8.40;99.90;;;;;;4839143;29;20054;-80
2022/01/17 11:36:39;;;;;;;21.20;3.25;;;8.40;99.90;;;;;;4854732;29;20042;-80
2022/01/17 11:39:08;;;;;;;27.25;4.43;;;8.50;99.90;;;;;;4828828;29;20044;-77
2022/01/17 11:41:39;;;;;;;18.98;2.80;;;8.50;99.90;;;;;;4827478;29;20030;-84
2022/01/17 11:45:18;;;;;;;28.88;4.50;;;8.50;99.90;;;;;;4839762;29;20061;-83
2022/01/17 11:48:48;;;;;;;18.52;3.33;;;8.60;99.90;;;;;;4822834;29;20046;-84
2022/01/17 11:51:39;;;;;;;23.95;3.65;;;8.60;99.90;;;;;;4754715;29;20044;-84
2022/01/17 11:54:44;;;;;;;21.15;3.00;;;8.60;99.90;;;;;;4837297;29;20141;-84
2022/01/17 11:57:34;;;;;;;20.17;2.50;;;8.70;99.90;;;;;;4854526;29;20850;-84
2022/01/17 12:00:07;;;;;;;18.67;2.53;;;8.70;99.90;;;;;;4853322;29;20042;-83
2022/01/17 12:03:14;;;;;;;22.30;3.10;;;8.80;99.90;;;;;;4841140;29;20045;-79
2022/01/17 12:05:55;;;;;;;19.05;2.90;;;8.90;99.90;;;;;;4795700;29;1334390;-84
2022/01/17 12:08:30;;;;;;;24.55;2.75;;;8.90;99.90;;;;;;4823954;29;20483;-81
2022/01/17 12:11:03;;;;;;;26.58;3.28;;;8.90;99.90;;;;;;4838530;29;20056;-80
2022/01/17 12:14:20;;;;;;;23.15;3.22;;;9.00;99.90;;;;;;4843055;29;20038;-79
2022/01/17 12:17:23;;;;;;;27.02;3.63;;;9.00;99.90;;;;;;4839502;29;20104;-79
2022/01/17 12:20:09;;;;;;;37.10;3.95;;;9.00;99.90;;;;;;4850970;29;20053;-84
2022/01/17 12:23:01;;;;;;;24.92;3.30;;;9.10;99.90;;;;;;4840422;29;20038;-79
2022/01/17 12:25:31;;;;;;;19.55;2.85;;;9.00;99.90;;;;;;4825498;29;20041;-80
2022/01/17 12:28:09;;;;;;;30.48;4.05;;;9.10;99.90;;;;;;4836689;29;20034;-82
2022/01/17 12:30:45;;;;;;;19.95;2.70;;;9.10;99.90;;;;;;4833167;29;20510;-85
2022/01/17 12:33:40;;;;;;;29.92;3.53;;;9.20;99.90;;;;;;4829029;29;20038;-79
2022/01/17 12:36:31;;;;;;;24.10;2.58;;;9.30;99.90;;;;;;4817048;29;20050;-82
2022/01/17 12:39:17;;;;;;;28.60;3.97;;;9.30;99.90;;;;;;4837988;29;20413;-81
2022/01/17 12:41:45;;;;;;;31.98;3.33;;;9.30;99.90;;;;;;4823820;29;20053;-81
2022/01/17 12:44:30;;;;;;;28.58;4.47;;;9.30;99.90;;;;;;4839141;29;20438;-79
2022/01/17 12:47:04;;;;;;;31.52;3.13;;;9.30;99.90;;;;;;4824649;29;20044;-79
2022/01/17 12:49:33;;;;;;;30.33;3.20;;;9.30;99.90;;;;;;4838675;29;20434;-80
2022/01/17 12:52:00;;;;;;;24.17;2.45;;;9.30;99.90;;;;;;4840787;29;20065;-79
2022/01/17 12:54:33;;;;;;;18.77;2.17;;;9.20;99.90;;;;;;4827342;29;20041;-79
2022/01/17 12:57:01;;;;;;;28.50;2.90;;;9.20;99.90;;;;;;4826169;29;20049;-82
2022/01/17 12:59:34;;;;;;;27.38;3.95;;;9.30;99.90;;;;;;4825812;29;20037;-82
2022/01/17 13:02:21;;;;;;;27.92;3.10;;;9.30;99.90;;;;;;4836224;29;20042;-81
2022/01/17 13:04:58;;;;;;;26.52;3.15;;;9.30;99.90;;;;;;4838165;29;20052;-81
2022/01/17 13:07:26;;;;;;;18.80;2.65;;;9.30;99.90;;;;;;4836753;29;20053;-81
2022/01/17 13:09:59;;;;;;;30.25;3.80;;;9.30;99.90;;;;;;4839002;29;20045;-82
2022/01/17 13:12:29;;;;;;;20.83;3.10;;;9.30;99.90;;;;;;4838059;29;20041;-82
2022/01/17 13:15:01;;;;;;;26.25;2.95;;;9.30;99.90;;;;;;4839032;29;20414;-80
2022/01/17 13:17:34;;;;;;;29.30;4.05;;;9.30;99.90;;;;;;4839499;29;20038;-83
2022/01/17 13:20:32;;;;;;;27.42;2.67;;;9.20;99.90;;;;;;4836699;29;20057;-79
2022/01/17 13:23:03;;;;;;;19.60;2.50;;;9.20;99.90;;;;;;4844086;29;20092;-78
2022/01/17 13:25:29;;;;;;;24.15;3.05;;;9.20;99.90;;;;;;4845639;29;20065;-79
2022/01/17 13:28:00;;;;;;;27.13;4.45;;;9.30;99.90;;;;;;4840868;29;20343;-80
2022/01/17 13:30:32;;;;;;;25.33;5.05;;;9.30;99.90;;;;;;4838507;29;20398;-81
2022/01/17 13:33:08;;;;;;;26.95;4.25;;;9.30;99.90;;;;;;4823437;29;20045;-80
2022/01/17 13:35:43;;;;;;;28.25;3.65;;;9.30;99.90;;;;;;4837795;29;20044;-79
2022/01/17 13:38:29;;;;;;;34.90;3.95;;;9.40;99.90;;;;;;4830034;29;20053;-81
2022/01/17 13:41:01;;;;;;;26.92;4.07;;;9.40;99.90;;;;;;4839560;29;20061;-82
2022/01/17 13:43:30;;;;;;;26.48;3.15;;;9.40;99.90;;;;;;4838535;29;20165;-82
2022/01/17 13:45:57;;;;;;;21.33;3.00;;;9.30;99.90;;;;;;4839576;29;20065;-82
2022/01/17 13:48:27;;;;;;;33.40;3.33;;;9.30;99.90;;;;;;4839529;29;20375;-82
2022/01/17 13:51:02;;;;;;;;;;;9.30;99.90;;;;;;4808630;29;20053;-78
2022/01/17 13:53:36;;;;;;;28.77;3.22;;;9.20;99.90;;;;;;4839618;29;19923;-76
2022/01/17 13:56:09;;;;;;;31.25;4.00;;;9.20;99.90;;;;;;4832726;29;20045;-77
2022/01/17 13:58:42;;;;;;;21.05;2.25;;;9.30;99.90;;;;;;4823606;29;20054;-77
2022/01/17 14:01:12;;;;;;;29.27;3.13;;;9.30;99.90;;;;;;4836759;29;20038;-79
2022/01/17 14:03:45;;;;;;;30.10;3.35;;;9.30;99.90;;;;;;4822604;29;20049;-77
2022/01/17 14:06:18;;;;;;;34.40;4.15;;;9.20;99.90;;;;;;4822223;29;20046;-76
2022/01/17 14:08:48;;;;;;;29.35;3.60;;;9.20;99.90;;;;;;4837595;29;20045;-77
2022/01/17 14:11:35;;;;;;;27.75;3.38;;;9.30;99.90;;;;;;4841178;29;20049;-77
2022/01/17 14:14:17;;;;;;;25.15;3.13;;;9.20;99.90;;;;;;4844424;29;20048;-78
2022/01/17 14:16:55;;;;;;;32.92;4.35;;;9.30;99.90;;;;;;4838324;29;20741;-79
2022/01/17 14:19:33;;;;;;;24.60;3.55;;;9.30;99.90;;;;;;4854976;29;20362;-80
2022/01/17 14:22:12;;;;;;;35.17;4.95;;;9.30;99.90;;;;;;4852419;29;20030;-78
2022/01/17 14:24:48;;;;;;;31.35;3.30;;;9.30;99.90;;;;;;4852846;29;20052;-79
2022/01/17 14:31:44;;;;;;;30.65;3.85;;;9.30;99.90;;;;;;4841563;29;20044;-79
2022/01/17 14:34:36;;;;;;;31.45;3.13;;;9.30;99.90;;;;;;4846821;29;20033;-85
2022/01/17 14:37:24;;;;;;;28.65;3.17;;;9.30;99.90;;;;;;4853011;29;20026;-79
2022/01/17 14:40:07;;;;;;;31.45;3.53;;;9.30;99.90;;;;;;4827974;29;20050;-78
2022/01/17 14:43:00;;;;;;;28.52;3.22;;;9.30;99.90;;;;;;4834647;29;20064;-77
2022/01/17 14:45:49;;;;;;;30.95;4.20;;;9.30;99.90;;;;;;4832771;29;20371;-79
2022/01/17 14:48:17;;;;;;;33.17;4.57;;;9.30;99.90;;;;;;4842948;29;20469;-76
2022/01/17 14:50:46;;;;;;;26.98;4.13;;;9.30;99.90;;;;;;4845782;29;20033;-77
2022/01/17 14:53:20;;;;;;;25.65;3.40;;;9.30;99.90;;;;;;4848487;29;20057;-77
2022/01/17 15:01:38;;;;;;;22.73;3.15;;;9.30;99.90;;;;;;4846851;29;20045;-85
2022/01/17 15:04:36;;;;;;;;;;;;;;;;;;;;;
2022/01/17 15:07:18;;;;;;;34.50;4.72;;;9.30;99.90;;;;;;4829327;29;20049;-85
2022/01/17 15:09:51;;;;;;;32.50;3.78;;;9.30;99.90;;;;;;4834252;29;20053;-84
2022/01/17 15:12:25;;;;;;;34.47;3.75;;;9.30;99.90;;;;;;4846875;29;20042;-85
2022/01/17 15:14:52;;;;;;;29.60;4.25;;;9.20;99.90;;;;;;4849782;29;20397;-85